sensor_id;sensor_type;location;lat;lon;timestamp;pressure;altitude;pressure_sealevel;temperature;humidity
70968;BME280;58629;48.808;8.820;2022-08-19T00:00:16;96753.84;;;18.24;83.31
70968;BME280;58629;48.808;8.820;2022-08-19T00:02:42;96750.88;;;18.22;84.23
70968;BME280;58629;48.808;8.820;2022-08-19T00:05:08;96762.78;;;18.20;85.02
70968;BME280;58629;48.808;8.820;2022-08-19T00:07:34;96758.19;;;18.21;88.50
70968;BME280;58629;48.808;8.820;2022-08-19T00:09:59;96763.25;;;18.19;90.78
70968;BME280;58629;48.808;8.820;2022-08-19T00:12:25;96768.81;;;18.15;91.79
70968;BME280;58629;48.808;8.820;2022-08-19T00:14:51;96760.88;;;18.06;88.69
70968;BME280;58629;48.808;8.820;2022-08-19T00:17:18;96760.44;;;18.08;87.53
70968;BME280;58629;48.808;8.820;2022-08-19T00:19:43;96761.88;;;18.09;87.32
70968;BME280;58629;48.808;8.820;2022-08-19T00:22:08;96761.41;;;18.10;88.03
70968;BME280;58629;48.808;8.820;2022-08-19T00:24:34;96758.28;;;18.12;87.80
70968;BME280;58629;48.808;8.820;2022-08-19T00:27:00;96758.75;;;18.10;85.62
70968;BME280;58629;48.808;8.820;2022-08-19T00:29:27;96755.16;;;18.13;84.50
70968;BME280;58629;48.808;8.820;2022-08-19T00:31:52;96756.34;;;18.12;84.82
70968;BME280;58629;48.808;8.820;2022-08-19T00:34:17;96751.25;;;18.14;83.71
70968;BME280;58629;48.808;8.820;2022-08-19T00:36:43;96736.38;;;18.13;83.50
70968;BME280;58629;48.808;8.820;2022-08-19T00:39:09;96725.19;;;18.15;82.64
70968;BME280;58629;48.808;8.820;2022-08-19T00:41:35;96724.28;;;18.18;82.85
70968;BME280;58629;48.808;8.820;2022-08-19T00:44:05;96724.28;;;18.18;82.65
70968;BME280;58629;48.808;8.820;2022-08-19T00:46:32;96730.84;;;18.17;82.68
70968;BME280;58629;48.808;8.820;2022-08-19T00:49:00;96714.00;;;18.16;82.01
70968;BME280;58629;48.808;8.820;2022-08-19T00:51:29;96701.81;;;18.15;81.75
70968;BME280;58629;48.808;8.820;2022-08-19T00:53:56;96710.59;;;18.16;82.45
70968;BME280;58629;48.808;8.820;2022-08-19T00:56:23;96723.72;;;18.14;82.07
70968;BME280;58629;48.808;8.820;2022-08-19T00:58:49;96732.50;;;18.14;82.27
70968;BME280;58629;48.808;8.820;2022-08-19T01:01:15;96733.97;;;18.15;81.77
70968;BME280;58629;48.808;8.820;2022-08-19T01:03:40;96743.22;;;18.14;82.48
70968;BME280;58629;48.808;8.820;2022-08-19T01:06:06;96739.53;;;18.12;82.73
70968;BME280;58629;48.808;8.820;2022-08-19T01:08:31;96738.78;;;18.11;83.42
70968;BME280;58629;48.808;8.820;2022-08-19T01:10:59;96733.16;;;18.09;83.39
70968;BME280;58629;48.808;8.820;2022-08-19T01:13:27;96735.09;;;18.09;83.31
70968;BME280;58629;48.808;8.820;2022-08-19T01:16:05;96725.75;;;18.04;83.64
70968;BME280;58629;48.808;8.820;2022-08-19T01:18:32;96730.41;;;18.04;83.57
70968;BME280;58629;48.808;8.820;2022-08-19T01:21:03;96727.44;;;18.02;84.27
70968;BME280;58629;48.808;8.820;2022-08-19T01:23:31;96728.91;;;18.03;83.33
70968;BME280;58629;48.808;8.820;2022-08-19T01:26:14;96734.28;;;18.03;83.67
70968;BME280;58629;48.808;8.820;2022-08-19T01:28:41;96726.69;;;18.01;84.37
70968;BME280;58629;48.808;8.820;2022-08-19T01:31:14;96726.44;;;17.99;83.79
70968;BME280;58629;48.808;8.820;2022-08-19T01:33:40;96727.91;;;18.00;83.74
70968;BME280;58629;48.808;8.820;2022-08-19T01:36:08;96726.69;;;18.01;83.43
70968;BME280;58629;48.808;8.820;2022-08-19T01:38:37;96729.38;;;18.01;84.01
70968;BME280;58629;48.808;8.820;2022-08-19T01:41:03;96730.13;;;18.02;83.91
70968;BME280;58629;48.808;8.820;2022-08-19T01:43:29;96722.56;;;18.00;84.16
70968;BME280;58629;48.808;8.820;2022-08-19T01:45:54;96727.91;;;18.00;83.88
70968;BME280;58629;48.808;8.820;2022-08-19T01:48:19;96725.69;;;17.99;83.90
70968;BME280;58629;48.808;8.820;2022-08-19T01:50:45;96723.00;;;17.99;83.87
70968;BME280;58629;48.808;8.820;2022-08-19T01:53:11;96723.00;;;17.99;84.06
70968;BME280;58629;48.808;8.820;2022-08-19T01:55:40;96716.94;;;17.98;84.58
70968;BME280;58629;48.808;8.820;2022-08-19T01:58:11;96725.41;;;17.97;84.39
70968;BME280;58629;48.808;8.820;2022-08-19T02:00:37;96726.16;;;17.97;84.34
70968;BME280;58629;48.808;8.820;2022-08-19T02:03:02;96732.25;;;17.98;84.65
70968;BME280;58629;48.808;8.820;2022-08-19T02:05:28;96727.09;;;17.94;84.92
70968;BME280;58629;48.808;8.820;2022-08-19T02:07:54;96732.72;;;17.96;84.40
70968;BME280;58629;48.808;8.820;2022-08-19T02:10:21;96729.56;;;17.98;84.47
70968;BME280;58629;48.808;8.820;2022-08-19T02:12:47;96731.50;;;17.97;85.20
70968;BME280;58629;48.808;8.820;2022-08-19T02:15:14;96731.50;;;17.97;84.65
70968;BME280;58629;48.808;8.820;2022-08-19T02:17:40;96722.00;;;17.96;84.22
70968;BME280;58629;48.808;8.820;2022-08-19T02:20:06;96724.97;;;17.98;84.09
70968;BME280;58629;48.808;8.820;2022-08-19T02:22:32;96719.78;;;17.95;84.45
70968;BME280;58629;48.808;8.820;2022-08-19T02:24:57;96727.38;;;17.96;83.80
70968;BME280;58629;48.808;8.820;2022-08-19T02:27:23;96730.50;;;17.95;84.66
70968;BME280;58629;48.808;8.820;2022-08-19T02:29:49;96735.84;;;17.95;85.04
70968;BME280;58629;48.808;8.820;2022-08-19T02:32:16;96729.50;;;17.92;84.92
70968;BME280;58629;48.808;8.820;2022-08-19T02:34:42;96726.81;;;17.92;84.89
70968;BME280;58629;48.808;8.820;2022-08-19T02:37:08;96717.00;;;17.89;84.99
70968;BME280;58629;48.808;8.820;2022-08-19T02:39:56;96716.75;;;17.87;85.20
70968;BME280;58629;48.808;8.820;2022-08-19T02:42:21;96712.31;;;17.84;85.41
70968;BME280;58629;48.808;8.820;2022-08-19T02:44:47;96714.72;;;17.82;85.63
70968;BME280;58629;48.808;8.820;2022-08-19T02:47:12;96705.66;;;17.80;85.69
70968;BME280;58629;48.808;8.820;2022-08-19T02:49:39;96700.03;;;17.78;85.66
70968;BME280;58629;48.808;8.820;2022-08-19T02:52:04;96706.59;;;17.77;85.88
70968;BME280;58629;48.808;8.820;2022-08-19T02:54:30;96706.78;;;17.73;86.15
70968;BME280;58629;48.808;8.820;2022-08-19T02:56:55;96710.66;;;17.72;86.01
70968;BME280;58629;48.808;8.820;2022-08-19T02:59:20;96711.38;;;17.73;86.01
70968;BME280;58629;48.808;8.820;2022-08-19T03:01:46;96721.09;;;17.70;86.41
70968;BME280;58629;48.808;8.820;2022-08-19T03:04:13;96719.59;;;17.69;86.62
70968;BME280;58629;48.808;8.820;2022-08-19T03:06:42;96726.94;;;17.69;86.43
70968;BME280;58629;48.808;8.820;2022-08-19T03:09:08;96733.47;;;17.68;86.53
70968;BME280;58629;48.808;8.820;2022-08-19T03:11:34;96735.41;;;17.67;86.48
70968;BME280;58629;48.808;8.820;2022-08-19T03:14:01;96737.09;;;17.65;87.20
70968;BME280;58629;48.808;8.820;2022-08-19T03:16:29;96730.50;;;17.66;86.54
70968;BME280;58629;48.808;8.820;2022-08-19T03:18:56;96729.22;;;17.61;87.36
70968;BME280;58629;48.808;8.820;2022-08-19T03:21:24;96725.63;;;17.64;86.83
70968;BME280;58629;48.808;8.820;2022-08-19T03:23:54;96731.44;;;17.63;87.09
70968;BME280;58629;48.808;8.820;2022-08-19T03:26:20;96725.81;;;17.61;87.20
70968;BME280;58629;48.808;8.820;2022-08-19T03:28:45;96732.34;;;17.60;87.26
70968;BME280;58629;48.808;8.820;2022-08-19T03:31:16;96725.97;;;17.57;87.91
70968;BME280;58629;48.808;8.820;2022-08-19T03:33:42;96722.31;;;17.55;87.52
70968;BME280;58629;48.808;8.820;2022-08-19T03:36:14;96723.50;;;17.54;87.81
70968;BME280;58629;48.808;8.820;2022-08-19T03:38:45;96717.84;;;17.52;87.94
70968;BME280;58629;48.808;8.820;2022-08-19T03:41:13;96724.16;;;17.49;88.27
70968;BME280;58629;48.808;8.820;2022-08-19T03:43:41;96719.94;;;17.48;87.80
70968;BME280;58629;48.808;8.820;2022-08-19T03:46:10;96717.75;;;17.46;88.44
70968;BME280;58629;48.808;8.820;2022-08-19T03:48:37;96715.81;;;17.47;87.95
70968;BME280;58629;48.808;8.820;2022-08-19T03:51:04;96718.22;;;17.45;88.24
70968;BME280;58629;48.808;8.820;2022-08-19T03:53:30;96723.28;;;17.43;88.72
70968;BME280;58629;48.808;8.820;2022-08-19T03:55:57;96717.94;;;17.43;88.78
70968;BME280;58629;48.808;8.820;2022-08-19T03:58:25;96723.72;;;17.41;88.91
70968;BME280;58629;48.808;8.820;2022-08-19T04:00:51;96726.13;;;17.39;89.08
70968;BME280;58629;48.808;8.820;2022-08-19T04:03:16;96730.28;;;17.40;88.72
70968;BME280;58629;48.808;8.820;2022-08-19T04:05:43;96735.38;;;17.38;89.08
70968;BME280;58629;48.808;8.820;2022-08-19T04:08:09;96738.03;;;17.38;89.23
70968;BME280;58629;48.808;8.820;2022-08-19T04:10:37;96738.78;;;17.39;89.04
70968;BME280;58629;48.808;8.820;2022-08-19T04:13:03;96738.03;;;17.38;89.19
70968;BME280;58629;48.808;8.820;2022-08-19T04:15:30;96733.25;;;17.42;88.40
70968;BME280;58629;48.808;8.820;2022-08-19T04:17:59;96726.59;;;17.38;89.48
70968;BME280;58629;48.808;8.820;2022-08-19T04:20:24;96734.91;;;17.40;89.31
70968;BME280;58629;48.808;8.820;2022-08-19T04:22:49;96738.03;;;17.38;88.96
70968;BME280;58629;48.808;8.820;2022-08-19T04:25:14;96733.16;;;17.37;89.56
70968;BME280;58629;48.808;8.820;2022-08-19T04:27:40;96746.06;;;17.38;89.29
70968;BME280;58629;48.808;8.820;2022-08-19T04:30:12;96753.34;;;17.38;89.76
70968;BME280;58629;48.808;8.820;2022-08-19T04:32:38;96751.22;;;17.42;89.13
70968;BME280;58629;48.808;8.820;2022-08-19T04:35:04;96750.50;;;17.41;89.52
70968;BME280;58629;48.808;8.820;2022-08-19T04:37:29;96745.59;;;17.40;89.70
70968;BME280;58629;48.808;8.820;2022-08-19T04:39:56;96746.81;;;17.39;89.73
70968;BME280;58629;48.808;8.820;2022-08-19T04:42:40;96748.00;;;17.38;89.99
70968;BME280;58629;48.808;8.820;2022-08-19T04:45:08;96748.00;;;17.38;89.57
70968;BME280;58629;48.808;8.820;2022-08-19T04:47:39;96749.50;;;17.39;89.88
70968;BME280;58629;48.808;8.820;2022-08-19T04:50:06;96744.13;;;17.39;90.10
70968;BME280;58629;48.808;8.820;2022-08-19T04:52:33;96749.03;;;17.40;90.08
70968;BME280;58629;48.808;8.820;2022-08-19T04:54:58;96742.47;;;17.41;89.97
70968;BME280;58629;48.808;8.820;2022-08-19T04:57:24;96741.28;;;17.42;90.00
70968;BME280;58629;48.808;8.820;2022-08-19T04:59:53;96737.09;;;17.41;90.48
70968;BME280;58629;48.808;8.820;2022-08-19T05:02:19;96737.09;;;17.41;90.04
70968;BME280;58629;48.808;8.820;2022-08-19T05:04:44;96744.69;;;17.43;89.75
70968;BME280;58629;48.808;8.820;2022-08-19T05:07:10;96746.91;;;17.44;89.35
70968;BME280;58629;48.808;8.820;2022-08-19T05:09:35;96756.88;;;17.44;89.86
70968;BME280;58629;48.808;8.820;2022-08-19T05:12:01;96756.69;;;17.47;89.73
70968;BME280;58629;48.808;8.820;2022-08-19T05:14:26;96756.69;;;17.47;89.41
70968;BME280;58629;48.808;8.820;2022-08-19T05:16:51;96763.53;;;17.48;89.44
70968;BME280;58629;48.808;8.820;2022-08-19T05:19:17;96770.38;;;17.49;89.54
70968;BME280;58629;48.808;8.820;2022-08-19T05:22:01;96774.53;;;17.50;89.41
70968;BME280;58629;48.808;8.820;2022-08-19T05:24:45;96786.72;;;17.51;89.38
70968;BME280;58629;48.808;8.820;2022-08-19T05:27:10;96787.19;;;17.50;88.86
70968;BME280;58629;48.808;8.820;2022-08-19T05:29:35;96799.66;;;17.53;89.36
70968;BME280;58629;48.808;8.820;2022-08-19T05:32:05;96805.03;;;17.53;89.35
70968;BME280;58629;48.808;8.820;2022-08-19T05:34:33;96814.50;;;17.54;89.76
70968;BME280;58629;48.808;8.820;2022-08-19T05:36:59;96818.41;;;17.53;89.13
70968;BME280;58629;48.808;8.820;2022-08-19T05:39:28;96827.91;;;17.54;88.82
70968;BME280;58629;48.808;8.820;2022-08-19T05:41:59;96822.56;;;17.54;88.40
70968;BME280;58629;48.808;8.820;2022-08-19T05:44:27;96842.03;;;17.54;88.76
70968;BME280;58629;48.808;8.820;2022-08-19T05:46:55;96835.47;;;17.55;88.58
70968;BME280;58629;48.808;8.820;2022-08-19T05:49:22;96842.31;;;17.56;88.56
70968;BME280;58629;48.808;8.820;2022-08-19T05:51:47;96843.34;;;17.59;87.81
70968;BME280;58629;48.808;8.820;2022-08-19T05:54:13;96839.28;;;17.63;87.66
70968;BME280;58629;48.808;8.820;2022-08-19T05:56:40;96822.59;;;17.68;88.00
70968;BME280;58629;48.808;8.820;2022-08-19T05:59:07;96822.13;;;17.70;87.34
70968;BME280;58629;48.808;8.820;2022-08-19T06:01:36;96830.91;;;17.70;87.62
70968;BME280;58629;48.808;8.820;2022-08-19T06:04:02;96831.91;;;17.73;87.58
70968;BME280;58629;48.808;8.820;2022-08-19T06:06:28;96830.25;;;17.75;87.59
70968;BME280;58629;48.808;8.820;2022-08-19T06:08:53;96827.09;;;17.77;86.69
70968;BME280;58629;48.808;8.820;2022-08-19T06:11:23;96828.88;;;17.80;86.11
70968;BME280;58629;48.808;8.820;2022-08-19T06:13:51;96831.09;;;17.81;86.75
70968;BME280;58629;48.808;8.820;2022-08-19T06:16:19;96830.63;;;17.83;86.63
70968;BME280;58629;48.808;8.820;2022-08-19T06:18:47;96825.09;;;17.86;86.47
70968;BME280;58629;48.808;8.820;2022-08-19T06:21:13;96830.75;;;17.88;85.95
70968;BME280;58629;48.808;8.820;2022-08-19T06:23:39;96824.44;;;17.91;85.95
70968;BME280;58629;48.808;8.820;2022-08-19T06:26:05;96831.28;;;17.92;86.05
70968;BME280;58629;48.808;8.820;2022-08-19T06:28:30;96826.94;;;17.95;85.63
70968;BME280;58629;48.808;8.820;2022-08-19T06:30:57;96825.28;;;17.97;86.10
70968;BME280;58629;48.808;8.820;2022-08-19T06:33:23;96818.47;;;17.96;86.27
70968;BME280;58629;48.808;8.820;2022-08-19T06:35:49;96815.03;;;17.96;85.89
70968;BME280;58629;48.808;8.820;2022-08-19T06:38:14;96817.72;;;17.96;86.01
70968;BME280;58629;48.808;8.820;2022-08-19T06:40:39;96817.25;;;17.97;86.43
70968;BME280;58629;48.808;8.820;2022-08-19T06:43:05;96811.41;;;17.99;86.34
70968;BME280;58629;48.808;8.820;2022-08-19T06:45:30;96810.97;;;18.00;85.82
70968;BME280;58629;48.808;8.820;2022-08-19T06:47:57;96809.28;;;18.03;85.83
70968;BME280;58629;48.808;8.820;2022-08-19T06:50:23;96816.41;;;18.06;85.52
70968;BME280;58629;48.808;8.820;2022-08-19T06:52:48;96815.22;;;18.07;84.89
70968;BME280;58629;48.808;8.820;2022-08-19T06:55:14;96819.66;;;18.10;84.50
70968;BME280;58629;48.808;8.820;2022-08-19T06:57:40;96825.00;;;18.10;84.35
70968;BME280;58629;48.808;8.820;2022-08-19T07:00:07;96824.53;;;18.11;84.74
70968;BME280;58629;48.808;8.820;2022-08-19T07:02:38;96833.59;;;18.14;84.70
70968;BME280;58629;48.808;8.820;2022-08-19T07:05:04;96829.44;;;18.13;84.11
70968;BME280;58629;48.808;8.820;2022-08-19T07:07:30;96826.56;;;18.16;84.67
70968;BME280;58629;48.808;8.820;2022-08-19T07:09:56;96830.72;;;18.17;84.39
70968;BME280;58629;48.808;8.820;2022-08-19T07:12:21;96835.91;;;18.21;83.35
70968;BME280;58629;48.808;8.820;2022-08-19T07:14:46;96835.97;;;18.27;83.74
70968;BME280;58629;48.808;8.820;2022-08-19T07:17:13;96839.22;;;18.31;83.54
70968;BME280;58629;48.808;8.820;2022-08-19T07:19:40;96838.31;;;18.34;83.12
70968;BME280;58629;48.808;8.820;2022-08-19T07:22:07;96833.78;;;18.40;83.85
70968;BME280;58629;48.808;8.820;2022-08-19T07:24:33;96836.28;;;18.43;83.54
70968;BME280;58629;48.808;8.820;2022-08-19T07:27:00;96838.78;;;18.47;83.00
70968;BME280;58629;48.808;8.820;2022-08-19T07:29:29;96851.91;;;18.45;83.11
70968;BME280;58629;48.808;8.820;2022-08-19T07:31:55;96856.53;;;18.44;83.70
70968;BME280;58629;48.808;8.820;2022-08-19T07:34:22;96853.53;;;18.42;83.13
70968;BME280;58629;48.808;8.820;2022-08-19T07:36:48;96857.53;;;18.47;82.89
70968;BME280;58629;48.808;8.820;2022-08-19T07:39:16;96846.63;;;18.50;82.22
70968;BME280;58629;48.808;8.820;2022-08-19T07:41:42;96860.22;;;18.61;83.05
70968;BME280;58629;48.808;8.820;2022-08-19T07:44:08;96852.13;;;18.76;82.28
70968;BME280;58629;48.808;8.820;2022-08-19T07:46:36;96858.19;;;18.91;81.31
70968;BME280;58629;48.808;8.820;2022-08-19T07:49:04;96855.94;;;19.04;80.47
70968;BME280;58629;48.808;8.820;2022-08-19T07:51:30;96848.16;;;19.06;80.61
70968;BME280;58629;48.808;8.820;2022-08-19T07:53:55;96860.31;;;19.22;81.32
70968;BME280;58629;48.808;8.820;2022-08-19T07:56:21;96858.84;;;19.21;80.28
70968;BME280;58629;48.808;8.820;2022-08-19T07:58:49;96855.00;;;19.07;80.27
70968;BME280;58629;48.808;8.820;2022-08-19T08:01:18;96862.00;;;19.19;81.08
70968;BME280;58629;48.808;8.820;2022-08-19T08:03:43;96838.66;;;19.25;81.88
70968;BME280;58629;48.808;8.820;2022-08-19T08:06:27;96834.09;;;19.31;79.28
70968;BME280;58629;48.808;8.820;2022-08-19T08:09:14;96846.34;;;19.18;79.20
70968;BME280;58629;48.808;8.820;2022-08-19T08:11:50;96851.78;;;19.23;80.12
70968;BME280;58629;48.808;8.820;2022-08-19T08:14:20;96853.16;;;19.33;80.07
70968;BME280;58629;48.808;8.820;2022-08-19T08:16:48;96854.47;;;19.43;78.59
70968;BME280;58629;48.808;8.820;2022-08-19T08:19:17;96859.16;;;19.43;79.55
70968;BME280;58629;48.808;8.820;2022-08-19T08:21:42;96851.09;;;19.43;78.76
70968;BME280;58629;48.808;8.820;2022-08-19T08:24:08;96856.03;;;19.50;78.36
70968;BME280;58629;48.808;8.820;2022-08-19T08:26:34;96855.91;;;19.59;77.97
70968;BME280;58629;48.808;8.820;2022-08-19T08:28:59;96855.47;;;19.66;78.93
70968;BME280;58629;48.808;8.820;2022-08-19T08:31:25;96860.75;;;19.55;78.38
70968;BME280;58629;48.808;8.820;2022-08-19T08:33:50;96854.94;;;19.62;77.53
70968;BME280;58629;48.808;8.820;2022-08-19T08:36:16;96865.44;;;19.60;78.09
70968;BME280;58629;48.808;8.820;2022-08-19T08:38:43;96867.38;;;19.59;78.47
70968;BME280;58629;48.808;8.820;2022-08-19T08:44:05;96873.59;;;19.71;79.13
70968;BME280;58629;48.808;8.820;2022-08-19T08:46:38;96875.25;;;19.63;77.26
70968;BME280;58629;48.808;8.820;2022-08-19T08:49:42;96874.81;;;19.70;78.25
70968;BME280;58629;48.808;8.820;2022-08-19T08:52:22;96881.34;;;19.63;77.26
70968;BME280;58629;48.808;8.820;2022-08-19T08:54:52;96871.88;;;19.68;77.84
70968;BME280;58629;48.808;8.820;2022-08-19T08:57:26;96870.91;;;19.71;77.66
70968;BME280;58629;48.808;8.820;2022-08-19T08:59:54;96883.41;;;19.74;76.73
70968;BME280;58629;48.808;8.820;2022-08-19T09:02:22;96875.84;;;19.72;77.10
70968;BME280;58629;48.808;8.820;2022-08-19T09:04:47;96874.34;;;19.71;77.68
70968;BME280;58629;48.808;8.820;2022-08-19T09:10:21;96882.81;;;19.84;77.54
70968;BME280;58629;48.808;8.820;2022-08-19T09:15:56;96873.25;;;19.83;75.85
70968;BME280;58629;48.808;8.820;2022-08-19T09:18:23;96869.91;;;19.88;75.26
70968;BME280;58629;48.808;8.820;2022-08-19T09:20:48;96867.47;;;19.91;75.66
70968;BME280;58629;48.808;8.820;2022-08-19T09:23:14;96877.09;;;20.03;76.11
70968;BME280;58629;48.808;8.820;2022-08-19T09:25:39;96879.53;;;20.01;75.66
70968;BME280;58629;48.808;8.820;2022-08-19T09:28:05;96892.50;;;20.02;74.86
70968;BME280;58629;48.808;8.820;2022-08-19T09:30:34;96884.19;;;20.00;74.79
70968;BME280;58629;48.808;8.820;2022-08-19T09:33:04;96881.22;;;19.98;75.44
70968;BME280;58629;48.808;8.820;2022-08-19T09:35:30;96886.19;;;20.05;75.32
70968;BME280;58629;48.808;8.820;2022-08-19T09:37:57;96886.13;;;20.00;75.62
70968;BME280;58629;48.808;8.820;2022-08-19T09:40:23;96886.66;;;20.04;76.07
70968;BME280;58629;48.808;8.820;2022-08-19T09:42:48;96884.97;;;20.06;75.68
70968;BME280;58629;48.808;8.820;2022-08-19T09:45:15;96884.03;;;20.09;74.37
70968;BME280;58629;48.808;8.820;2022-08-19T09:47:42;96878.31;;;20.22;73.92
70968;BME280;58629;48.808;8.820;2022-08-19T09:50:09;96897.78;;;20.42;73.12
70968;BME280;58629;48.808;8.820;2022-08-19T09:52:35;96887.81;;;20.48;74.15
70968;BME280;58629;48.808;8.820;2022-08-19T09:55:05;96894.41;;;20.47;71.34
70968;BME280;58629;48.808;8.820;2022-08-19T09:57:31;96904.44;;;20.47;71.50
70968;BME280;58629;48.808;8.820;2022-08-19T09:59:56;96890.56;;;20.54;72.33
70968;BME280;58629;48.808;8.820;2022-08-19T10:02:21;96895.47;;;20.55;70.26
70968;BME280;58629;48.808;8.820;2022-08-19T10:04:46;96892.59;;;20.64;70.15
70968;BME280;58629;48.808;8.820;2022-08-19T10:07:47;96897.06;;;20.73;69.85
70968;BME280;58629;48.808;8.820;2022-08-19T10:10:13;96892.97;;;20.83;70.26
70968;BME280;58629;48.808;8.820;2022-08-19T10:12:38;96895.50;;;20.98;70.21
70968;BME280;58629;48.808;8.820;2022-08-19T10:15:05;96886.91;;;20.94;69.51
70968;BME280;58629;48.808;8.820;2022-08-19T10:17:31;96887.66;;;20.94;68.94
70968;BME280;58629;48.808;8.820;2022-08-19T10:20:00;96885.72;;;21.00;69.36
70968;BME280;58629;48.808;8.820;2022-08-19T10:22:27;96894.03;;;20.97;69.93
70968;BME280;58629;48.808;8.820;2022-08-19T10:24:53;96895.03;;;20.99;68.97
70968;BME280;58629;48.808;8.820;2022-08-19T10:27:18;96888.22;;;21.04;69.59
70968;BME280;58629;48.808;8.820;2022-08-19T10:29:43;96886.03;;;21.08;69.25
70968;BME280;58629;48.808;8.820;2022-08-19T10:32:09;96888.31;;;21.15;68.80
70968;BME280;58629;48.808;8.820;2022-08-19T10:34:37;96882.00;;;21.29;68.77
70968;BME280;58629;48.808;8.820;2022-08-19T10:37:04;96881.47;;;21.19;68.33
70968;BME280;58629;48.808;8.820;2022-08-19T10:39:32;96883.44;;;21.24;67.51
70968;BME280;58629;48.808;8.820;2022-08-19T10:41:58;96892.50;;;21.21;68.44
70968;BME280;58629;48.808;8.820;2022-08-19T10:44:24;96897.66;;;21.25;67.91
70968;BME280;58629;48.808;8.820;2022-08-19T10:46:50;96884.22;;;21.30;67.94
70968;BME280;58629;48.808;8.820;2022-08-19T10:49:16;96882.22;;;21.25;67.50
70968;BME280;58629;48.808;8.820;2022-08-19T10:51:41;96872.91;;;21.21;67.58
70968;BME280;58629;48.808;8.820;2022-08-19T10:54:26;96862.63;;;21.19;67.75
70968;BME280;58629;48.808;8.820;2022-08-19T10:57:11;96867.78;;;21.23;67.91
70968;BME280;58629;48.808;8.820;2022-08-19T10:59:37;96858.19;;;21.16;66.59
70968;BME280;58629;48.808;8.820;2022-08-19T11:02:05;96862.59;;;21.14;67.46
70968;BME280;58629;48.808;8.820;2022-08-19T11:04:31;96855.72;;;21.07;67.36
70968;BME280;58629;48.808;8.820;2022-08-19T11:06:57;96859.31;;;20.99;67.75
70968;BME280;58629;48.808;8.820;2022-08-19T11:09:24;96851.91;;;20.94;68.50
70968;BME280;58629;48.808;8.820;2022-08-19T11:11:50;96856.31;;;20.91;66.87
70968;BME280;58629;48.808;8.820;2022-08-19T11:14:18;96854.72;;;21.05;67.64
70968;BME280;58629;48.808;8.820;2022-08-19T11:16:47;96856.28;;;21.28;67.75
70968;BME280;58629;48.808;8.820;2022-08-19T11:19:12;96857.63;;;21.49;67.32
70968;BME280;58629;48.808;8.820;2022-08-19T11:21:42;96849.31;;;21.64;65.78
70968;BME280;58629;48.808;8.820;2022-08-19T11:24:10;96851.16;;;22.00;64.69
70968;BME280;58629;48.808;8.820;2022-08-19T11:26:38;96841.84;;;22.17;64.09
70968;BME280;58629;48.808;8.820;2022-08-19T11:29:06;96833.25;;;22.47;63.20
70968;BME280;58629;48.808;8.820;2022-08-19T11:31:36;96832.03;;;22.75;62.39
70968;BME280;58629;48.808;8.820;2022-08-19T11:34:05;96836.72;;;22.58;60.53
70968;BME280;58629;48.808;8.820;2022-08-19T11:36:31;96857.56;;;22.52;61.02
70968;BME280;58629;48.808;8.820;2022-08-19T11:39:00;96853.38;;;22.51;61.54
70968;BME280;58629;48.808;8.820;2022-08-19T11:41:26;96853.41;;;22.40;60.70
70968;BME280;58629;48.808;8.820;2022-08-19T11:43:52;96858.03;;;22.51;61.56
70968;BME280;58629;48.808;8.820;2022-08-19T11:46:19;96856.56;;;22.50;58.48
70968;BME280;58629;48.808;8.820;2022-08-19T11:48:45;96862.25;;;22.57;58.07
70968;BME280;58629;48.808;8.820;2022-08-19T11:51:15;96856.81;;;22.68;56.11
70968;BME280;58629;48.808;8.820;2022-08-19T11:53:41;96859.00;;;22.92;55.56
70968;BME280;58629;48.808;8.820;2022-08-19T11:56:07;96847.91;;;23.17;55.19
70968;BME280;58629;48.808;8.820;2022-08-19T11:58:33;96853.72;;;23.38;56.36
70968;BME280;58629;48.808;8.820;2022-08-19T12:00:59;96855.94;;;23.28;56.00
70968;BME280;58629;48.808;8.820;2022-08-19T12:03:25;96849.09;;;23.33;56.04
70968;BME280;58629;48.808;8.820;2022-08-19T12:05:50;96850.03;;;23.41;57.45
70968;BME280;58629;48.808;8.820;2022-08-19T12:08:17;96840.97;;;23.39;54.15
70968;BME280;58629;48.808;8.820;2022-08-19T12:10:43;96839.41;;;23.54;55.83
70968;BME280;58629;48.808;8.820;2022-08-19T12:13:10;96840.72;;;23.83;53.46
70968;BME280;58629;48.808;8.820;2022-08-19T12:15:38;96841.81;;;24.09;53.84
70968;BME280;58629;48.808;8.820;2022-08-19T12:18:06;96839.53;;;23.78;53.05
70968;BME280;58629;48.808;8.820;2022-08-19T12:20:38;96840.38;;;23.57;52.18
70968;BME280;58629;48.808;8.820;2022-08-19T12:23:05;96842.84;;;23.55;52.02
70968;BME280;58629;48.808;8.820;2022-08-19T12:25:31;96846.88;;;23.37;51.40
70968;BME280;58629;48.808;8.820;2022-08-19T12:27:58;96829.19;;;23.25;52.08
70968;BME280;58629;48.808;8.820;2022-08-19T12:30:23;96832.34;;;23.40;51.77
70968;BME280;58629;48.808;8.820;2022-08-19T12:32:49;96827.06;;;23.64;51.48
70968;BME280;58629;48.808;8.820;2022-08-19T12:35:17;96820.06;;;24.26;49.05
70968;BME280;58629;48.808;8.820;2022-08-19T12:37:44;96804.63;;;24.75;48.10
70968;BME280;58629;48.808;8.820;2022-08-19T12:40:11;96817.03;;;25.32;48.59
70968;BME280;58629;48.808;8.820;2022-08-19T12:42:38;96812.38;;;25.51;46.06
70968;BME280;58629;48.808;8.820;2022-08-19T12:45:06;96815.31;;;25.53;47.57
70968;BME280;58629;48.808;8.820;2022-08-19T12:47:32;96816.97;;;24.94;46.80
70968;BME280;58629;48.808;8.820;2022-08-19T12:49:57;96809.75;;;24.78;47.57
70968;BME280;58629;48.808;8.820;2022-08-19T12:52:24;96813.66;;;24.83;47.16
70968;BME280;58629;48.808;8.820;2022-08-19T12:54:51;96825.06;;;24.70;48.94
70968;BME280;58629;48.808;8.820;2022-08-19T12:57:17;96821.03;;;24.82;47.33
70968;BME280;58629;48.808;8.820;2022-08-19T12:59:42;96836.84;;;24.78;49.10
70968;BME280;58629;48.808;8.820;2022-08-19T13:02:07;96839.13;;;24.69;51.00
70968;BME280;58629;48.808;8.820;2022-08-19T13:04:34;96840.16;;;24.36;51.36
70968;BME280;58629;48.808;8.820;2022-08-19T13:07:01;96844.94;;;24.19;52.04
70968;BME280;58629;48.808;8.820;2022-08-19T13:09:27;96841.59;;;24.07;53.00